sensor_id;sensor_type;location;lat;lon;timestamp;P1;durP1;ratioP1;P2;durP2;ratioP2
30096;SDS011;16915;51.466;3.610;2022-09-09T00:00:37;8.80;;;2.83;;
30096;SDS011;16915;51.466;3.610;2022-09-09T00:03:08;9.40;;;3.20;;
30096;SDS011;16915;51.466;3.610;2022-09-09T00:05:52;5.43;;;2.95;;
30096;SDS011;16915;51.466;3.610;2022-09-09T00:08:20;4.95;;;2.88;;
30096;SDS011;16915;51.466;3.610;2022-09-09T00:10:58;3.35;;;2.22;;
30096;SDS011;16915;51.466;3.610;2022-09-09T00:13:28;9.77;;;3.17;;
30096;SDS011;16915;51.466;3.610;2022-09-09T00:15:59;7.38;;;2.70;;
30096;SDS011;16915;51.466;3.610;2022-09-09T00:19:22;7.28;;;2.58;;
30096;SDS011;16915;51.466;3.610;2022-09-09T00:22:08;7.35;;;2.63;;
30096;SDS011;16915;51.466;3.610;2022-09-09T00:28:27;7.22;;;2.58;;
30096;SDS011;16915;51.466;3.610;2022-09-09T00:31:28;5.50;;;2.42;;
30096;SDS011;16915;51.466;3.610;2022-09-09T00:34:12;7.68;;;3.45;;
30096;SDS011;16915;51.466;3.610;2022-09-09T00:36:42;6.72;;;2.55;;
30096;SDS011;16915;51.466;3.610;2022-09-09T00:39:19;6.60;;;2.80;;
30096;SDS011;16915;51.466;3.610;2022-09-09T00:48:21;7.05;;;3.55;;
30096;SDS011;16915;51.466;3.610;2022-09-09T00:50:59;4.35;;;2.53;;
30096;SDS011;16915;51.466;3.610;2022-09-09T00:53:38;4.25;;;2.47;;
30096;SDS011;16915;51.466;3.610;2022-09-09T00:56:27;3.47;;;2.33;;
30096;SDS011;16915;51.466;3.610;2022-09-09T00:59:28;8.85;;;2.35;;
30096;SDS011;16915;51.466;3.610;2022-09-09T01:02:53;4.50;;;2.28;;
30096;SDS011;16915;51.466;3.610;2022-09-09T01:12:43;5.82;;;1.98;;
30096;SDS011;16915;51.466;3.610;2022-09-09T01:15:16;7.32;;;2.00;;
30096;SDS011;16915;51.466;3.610;2022-09-09T01:27:09;3.00;;;1.55;;
30096;SDS011;16915;51.466;3.610;2022-09-09T01:29:36;5.60;;;2.08;;
30096;SDS011;16915;51.466;3.610;2022-09-09T01:32:37;7.70;;;2.47;;
30096;SDS011;16915;51.466;3.610;2022-09-09T01:38:41;7.25;;;1.50;;
30096;SDS011;16915;51.466;3.610;2022-09-09T01:41:16;4.72;;;1.60;;
30096;SDS011;16915;51.466;3.610;2022-09-09T01:43:42;6.65;;;1.73;;
30096;SDS011;16915;51.466;3.610;2022-09-09T01:46:09;6.20;;;1.27;;
30096;SDS011;16915;51.466;3.610;2022-09-09T01:48:36;3.05;;;1.15;;
30096;SDS011;16915;51.466;3.610;2022-09-09T01:51:02;3.35;;;1.23;;
30096;SDS011;16915;51.466;3.610;2022-09-09T02:03:27;3.85;;;1.05;;
30096;SDS011;16915;51.466;3.610;2022-09-09T02:08:45;3.42;;;1.17;;
30096;SDS011;16915;51.466;3.610;2022-09-09T02:12:11;1.77;;;1.10;;
30096;SDS011;16915;51.466;3.610;2022-09-09T02:18:34;3.35;;;1.20;;
30096;SDS011;16915;51.466;3.610;2022-09-09T02:24:56;5.40;;;1.73;;
30096;SDS011;16915;51.466;3.610;2022-09-09T02:28:11;4.18;;;1.13;;
30096;SDS011;16915;51.466;3.610;2022-09-09T02:31:07;6.40;;;1.60;;
30096;SDS011;16915;51.466;3.610;2022-09-09T02:33:36;9.13;;;1.10;;
30096;SDS011;16915;51.466;3.610;2022-09-09T02:36:20;4.53;;;1.27;;
30096;SDS011;16915;51.466;3.610;2022-09-09T02:39:50;2.10;;;1.30;;
30096;SDS011;16915;51.466;3.610;2022-09-09T02:45:18;3.92;;;1.20;;
30096;SDS011;16915;51.466;3.610;2022-09-09T02:48:20;7.18;;;1.40;;
30096;SDS011;16915;51.466;3.610;2022-09-09T02:51:32;2.95;;;1.27;;
30096;SDS011;16915;51.466;3.610;2022-09-09T02:54:48;7.53;;;1.70;;
30096;SDS011;16915;51.466;3.610;2022-09-09T02:58:13;4.55;;;1.52;;
30096;SDS011;16915;51.466;3.610;2022-09-09T03:01:32;1.75;;;0.95;;
30096;SDS011;16915;51.466;3.610;2022-09-09T03:04:08;6.60;;;1.27;;
30096;SDS011;16915;51.466;3.610;2022-09-09T03:07:17;7.13;;;1.40;;
30096;SDS011;16915;51.466;3.610;2022-09-09T03:10:10;6.05;;;1.10;;
30096;SDS011;16915;51.466;3.610;2022-09-09T03:15:32;3.10;;;0.80;;
30096;SDS011;16915;51.466;3.610;2022-09-09T03:18:09;7.20;;;1.25;;
30096;SDS011;16915;51.466;3.610;2022-09-09T03:20:45;5.05;;;1.48;;
30096;SDS011;16915;51.466;3.610;2022-09-09T03:23:52;4.18;;;1.20;;
30096;SDS011;16915;51.466;3.610;2022-09-09T03:26:57;4.63;;;1.45;;
30096;SDS011;16915;51.466;3.610;2022-09-09T03:29:52;4.13;;;1.00;;
30096;SDS011;16915;51.466;3.610;2022-09-09T03:32:54;8.32;;;1.80;;
30096;SDS011;16915;51.466;3.610;2022-09-09T03:35:49;6.70;;;1.48;;
30096;SDS011;16915;51.466;3.610;2022-09-09T03:38:16;3.05;;;1.50;;
30096;SDS011;16915;51.466;3.610;2022-09-09T03:40:52;7.68;;;1.58;;
30096;SDS011;16915;51.466;3.610;2022-09-09T03:43:33;4.65;;;1.50;;
30096;SDS011;16915;51.466;3.610;2022-09-09T03:46:50;5.07;;;1.40;;
30096;SDS011;16915;51.466;3.610;2022-09-09T03:50:16;4.40;;;1.35;;
30096;SDS011;16915;51.466;3.610;2022-09-09T03:53:22;5.88;;;1.10;;
30096;SDS011;16915;51.466;3.610;2022-09-09T03:56:40;4.95;;;1.20;;
30096;SDS011;16915;51.466;3.610;2022-09-09T03:59:08;7.25;;;1.30;;
30096;SDS011;16915;51.466;3.610;2022-09-09T04:02:18;2.97;;;1.27;;
30096;SDS011;16915;51.466;3.610;2022-09-09T04:05:24;5.30;;;1.30;;
30096;SDS011;16915;51.466;3.610;2022-09-09T04:08:54;9.60;;;2.22;;
30096;SDS011;16915;51.466;3.610;2022-09-09T04:12:23;5.03;;;1.40;;
30096;SDS011;16915;51.466;3.610;2022-09-09T04:15:54;8.60;;;1.70;;
30096;SDS011;16915;51.466;3.610;2022-09-09T04:18:29;10.60;;;1.90;;
30096;SDS011;16915;51.466;3.610;2022-09-09T04:25:05;6.97;;;1.67;;
30096;SDS011;16915;51.466;3.610;2022-09-09T04:28:25;7.65;;;1.33;;
30096;SDS011;16915;51.466;3.610;2022-09-09T04:31:40;6.55;;;1.50;;
30096;SDS011;16915;51.466;3.610;2022-09-09T04:38:53;9.88;;;1.63;;
30096;SDS011;16915;51.466;3.610;2022-09-09T04:42:09;7.30;;;1.85;;
30096;SDS011;16915;51.466;3.610;2022-09-09T04:45:14;9.65;;;1.80;;
30096;SDS011;16915;51.466;3.610;2022-09-09T04:48:36;8.98;;;2.03;;
30096;SDS011;16915;51.466;3.610;2022-09-09T04:51:22;11.70;;;2.00;;
30096;SDS011;16915;51.466;3.610;2022-09-09T04:54:11;15.07;;;2.28;;
30096;SDS011;16915;51.466;3.610;2022-09-09T04:56:41;7.15;;;2.05;;
30096;SDS011;16915;51.466;3.610;2022-09-09T04:59:57;8.50;;;2.28;;
30096;SDS011;16915;51.466;3.610;2022-09-09T06:05:46;6.15;;;1.45;;
30096;SDS011;16915;51.466;3.610;2022-09-09T06:09:20;9.95;;;2.10;;
30096;SDS011;16915;51.466;3.610;2022-09-09T06:13:04;6.07;;;1.30;;
30096;SDS011;16915;51.466;3.610;2022-09-09T06:19:59;10.23;;;2.28;;
30096;SDS011;16915;51.466;3.610;2022-09-09T06:23:11;8.13;;;1.60;;
30096;SDS011;16915;51.466;3.610;2022-09-09T06:26:41;7.03;;;1.55;;
30096;SDS011;16915;51.466;3.610;2022-09-09T06:30:04;9.50;;;2.05;;
30096;SDS011;16915;51.466;3.610;2022-09-09T06:33:24;6.50;;;1.38;;
30096;SDS011;16915;51.466;3.610;2022-09-09T06:36:54;7.32;;;1.92;;
30096;SDS011;16915;51.466;3.610;2022-09-09T06:43:20;7.00;;;1.92;;
30096;SDS011;16915;51.466;3.610;2022-09-09T06:46:30;4.38;;;1.45;;
30096;SDS011;16915;51.466;3.610;2022-09-09T06:49:48;7.53;;;1.52;;
30096;SDS011;16915;51.466;3.610;2022-09-09T06:52:37;6.00;;;1.60;;
30096;SDS011;16915;51.466;3.610;2022-09-09T06:56:32;4.25;;;1.60;;
30096;SDS011;16915;51.466;3.610;2022-09-09T07:02:31;7.93;;;1.60;;
30096;SDS011;16915;51.466;3.610;2022-09-09T07:05:17;5.95;;;1.33;;
30096;SDS011;16915;51.466;3.610;2022-09-09T07:09:07;8.52;;;1.58;;
30096;SDS011;16915;51.466;3.610;2022-09-09T07:12:06;10.85;;;1.30;;
30096;SDS011;16915;51.466;3.610;2022-09-09T07:14:49;3.83;;;1.38;;
30096;SDS011;16915;51.466;3.610;2022-09-09T07:17:17;5.88;;;1.40;;
30096;SDS011;16915;51.466;3.610;2022-09-09T07:19:45;4.90;;;1.20;;
30096;SDS011;16915;51.466;3.610;2022-09-09T07:22:20;10.95;;;1.38;;
30096;SDS011;16915;51.466;3.610;2022-09-09T07:25:18;7.25;;;1.17;;
30096;SDS011;16915;51.466;3.610;2022-09-09T07:27:57;6.45;;;1.35;;
30096;SDS011;16915;51.466;3.610;2022-09-09T07:30:33;6.90;;;1.65;;
30096;SDS011;16915;51.466;3.610;2022-09-09T07:33:01;5.93;;;1.27;;
30096;SDS011;16915;51.466;3.610;2022-09-09T07:38:08;8.30;;;1.35;;
30096;SDS011;16915;51.466;3.610;2022-09-09T07:41:15;8.13;;;1.35;;
30096;SDS011;16915;51.466;3.610;2022-09-09T07:47:26;6.72;;;1.38;;
30096;SDS011;16915;51.466;3.610;2022-09-09T07:49:56;7.47;;;1.40;;
30096;SDS011;16915;51.466;3.610;2022-09-09T07:52:23;6.13;;;1.27;;
30096;SDS011;16915;51.466;3.610;2022-09-09T07:55:04;5.28;;;1.15;;
30096;SDS011;16915;51.466;3.610;2022-09-09T07:57:31;9.00;;;1.80;;
30096;SDS011;16915;51.466;3.610;2022-09-09T08:00:02;7.88;;;1.45;;
30096;SDS011;16915;51.466;3.610;2022-09-09T08:02:55;5.35;;;1.25;;
30096;SDS011;16915;51.466;3.610;2022-09-09T08:05:44;5.05;;;1.38;;
30096;SDS011;16915;51.466;3.610;2022-09-09T08:08:19;6.15;;;1.15;;
30096;SDS011;16915;51.466;3.610;2022-09-09T08:10:47;5.30;;;1.35;;
30096;SDS011;16915;51.466;3.610;2022-09-09T08:16:45;8.60;;;1.48;;
30096;SDS011;16915;51.466;3.610;2022-09-09T08:19:13;6.35;;;1.65;;
30096;SDS011;16915;51.466;3.610;2022-09-09T08:21:41;5.60;;;1.00;;
30096;SDS011;16915;51.466;3.610;2022-09-09T08:24:10;3.60;;;0.90;;
30096;SDS011;16915;51.466;3.610;2022-09-09T08:26:38;4.30;;;1.20;;
30096;SDS011;16915;51.466;3.610;2022-09-09T08:29:10;5.50;;;1.38;;
30096;SDS011;16915;51.466;3.610;2022-09-09T08:32:07;4.80;;;1.40;;
30096;SDS011;16915;51.466;3.610;2022-09-09T08:40:22;2.70;;;1.00;;
30096;SDS011;16915;51.466;3.610;2022-09-09T08:42:55;5.95;;;1.50;;
30096;SDS011;16915;51.466;3.610;2022-09-09T08:48:40;7.28;;;1.75;;
30096;SDS011;16915;51.466;3.610;2022-09-09T08:51:53;5.95;;;1.35;;
30096;SDS011;16915;51.466;3.610;2022-09-09T08:54:32;5.55;;;1.38;;
30096;SDS011;16915;51.466;3.610;2022-09-09T08:57:23;7.40;;;1.38;;
30096;SDS011;16915;51.466;3.610;2022-09-09T09:00:13;4.80;;;1.38;;
30096;SDS011;16915;51.466;3.610;2022-09-09T09:12:21;6.35;;;1.33;;
30096;SDS011;16915;51.466;3.610;2022-09-09T09:15:05;1.85;;;1.10;;
30096;SDS011;16915;51.466;3.610;2022-09-09T09:17:43;5.55;;;1.38;;
30096;SDS011;16915;51.466;3.610;2022-09-09T09:20:20;3.50;;;0.90;;
30096;SDS011;16915;51.466;3.610;2022-09-09T09:22:52;3.40;;;1.42;;
30096;SDS011;16915;51.466;3.610;2022-09-09T09:25:27;6.57;;;2.22;;
30096;SDS011;16915;51.466;3.610;2022-09-09T09:28:17;3.58;;;1.25;;
30096;SDS011;16915;51.466;3.610;2022-09-09T09:31:05;6.70;;;1.38;;
30096;SDS011;16915;51.466;3.610;2022-09-09T09:33:54;3.75;;;1.40;;
30096;SDS011;16915;51.466;3.610;2022-09-09T09:36:52;4.97;;;1.47;;
30096;SDS011;16915;51.466;3.610;2022-09-09T09:39:26;1.65;;;1.15;;
30096;SDS011;16915;51.466;3.610;2022-09-09T09:41:54;4.40;;;1.45;;
30096;SDS011;16915;51.466;3.610;2022-09-09T09:44:23;3.17;;;1.17;;
30096;SDS011;16915;51.466;3.610;2022-09-09T09:49:34;2.50;;;1.13;;
30096;SDS011;16915;51.466;3.610;2022-09-09T09:52:00;5.28;;;1.30;;
30096;SDS011;16915;51.466;3.610;2022-09-09T09:54:31;3.53;;;1.42;;
30096;SDS011;16915;51.466;3.610;2022-09-09T09:57:10;5.88;;;1.50;;
30096;SDS011;16915;51.466;3.610;2022-09-09T09:59:38;9.32;;;1.75;;
30096;SDS011;16915;51.466;3.610;2022-09-09T10:02:24;6.68;;;2.20;;
30096;SDS011;16915;51.466;3.610;2022-09-09T10:05:22;8.00;;;1.83;;
30096;SDS011;16915;51.466;3.610;2022-09-09T10:08:15;7.93;;;1.92;;
30096;SDS011;16915;51.466;3.610;2022-09-09T10:11:23;4.75;;;2.53;;
30096;SDS011;16915;51.466;3.610;2022-09-09T10:17:41;5.28;;;2.05;;
30096;SDS011;16915;51.466;3.610;2022-09-09T10:31:06;7.88;;;2.40;;
30096;SDS011;16915;51.466;3.610;2022-09-09T10:37:01;4.90;;;2.30;;
30096;SDS011;16915;51.466;3.610;2022-09-09T10:39:58;5.95;;;2.58;;
30096;SDS011;16915;51.466;3.610;2022-09-09T10:49:09;4.68;;;2.90;;
30096;SDS011;16915;51.466;3.610;2022-09-09T10:57:35;5.18;;;2.38;;
30096;SDS011;16915;51.466;3.610;2022-09-09T11:00:14;6.55;;;2.70;;
30096;SDS011;16915;51.466;3.610;2022-09-09T11:03:01;9.38;;;2.55;;
30096;SDS011;16915;51.466;3.610;2022-09-09T11:05:46;7.10;;;2.10;;
30096;SDS011;16915;51.466;3.610;2022-09-09T11:08:30;5.28;;;1.58;;
30096;SDS011;16915;51.466;3.610;2022-09-09T11:11:03;8.30;;;1.67;;
30096;SDS011;16915;51.466;3.610;2022-09-09T11:16:49;7.88;;;2.33;;
30096;SDS011;16915;51.466;3.610;2022-09-09T11:19:34;8.80;;;2.78;;
30096;SDS011;16915;51.466;3.610;2022-09-09T11:22:17;13.00;;;3.15;;
30096;SDS011;16915;51.466;3.610;2022-09-09T11:25:00;7.07;;;3.10;;
30096;SDS011;16915;51.466;3.610;2022-09-09T11:33:58;10.27;;;3.33;;
30096;SDS011;16915;51.466;3.610;2022-09-09T11:37:08;8.52;;;2.78;;
30096;SDS011;16915;51.466;3.610;2022-09-09T11:40:22;7.22;;;2.63;;
30096;SDS011;16915;51.466;3.610;2022-09-09T11:43:11;4.97;;;2.28;;
30096;SDS011;16915;51.466;3.610;2022-09-09T11:45:49;7.22;;;2.55;;
30096;SDS011;16915;51.466;3.610;2022-09-09T11:51:51;3.67;;;2.55;;
30096;SDS011;16915;51.466;3.610;2022-09-09T11:54:29;6.05;;;3.05;;
30096;SDS011;16915;51.466;3.610;2022-09-09T11:56:57;7.22;;;2.72;;
30096;SDS011;16915;51.466;3.610;2022-09-09T12:10:25;6.60;;;1.80;;
30096;SDS011;16915;51.466;3.610;2022-09-09T12:12:54;3.15;;;2.00;;
30096;SDS011;16915;51.466;3.610;2022-09-09T12:32:00;6.43;;;1.90;;
30096;SDS011;16915;51.466;3.610;2022-09-09T12:34:35;10.50;;;1.60;;
30096;SDS011;16915;51.466;3.610;2022-09-09T12:37:14;10.55;;;2.10;;
30096;SDS011;16915;51.466;3.610;2022-09-09T12:39:57;7.30;;;1.35;;
30096;SDS011;16915;51.466;3.610;2022-09-09T12:42:27;7.55;;;1.40;;
30096;SDS011;16915;51.466;3.610;2022-09-09T12:47:18;5.88;;;1.33;;
30096;SDS011;16915;51.466;3.610;2022-09-09T12:49:47;8.98;;;1.63;;
30096;SDS011;16915;51.466;3.610;2022-09-09T12:52:28;13.18;;;1.92;;
30096;SDS011;16915;51.466;3.610;2022-09-09T12:55:00;10.52;;;2.33;;
30096;SDS011;16915;51.466;3.610;2022-09-09T12:57:36;4.82;;;1.92;;
30096;SDS011;16915;51.466;3.610;2022-09-09T13:00:12;10.73;;;2.50;;
30096;SDS011;16915;51.466;3.610;2022-09-09T13:02:51;8.32;;;2.60;;
30096;SDS011;16915;51.466;3.610;2022-09-09T13:05:22;10.45;;;2.80;;
30096;SDS011;16915;51.466;3.610;2022-09-09T13:07:50;7.68;;;2.25;;
30096;SDS011;16915;51.466;3.610;2022-09-09T13:10:21;11.05;;;2.47;;
30096;SDS011;16915;51.466;3.610;2022-09-09T13:12:56;8.00;;;2.47;;
30096;SDS011;16915;51.466;3.610;2022-09-09T13:15:24;6.78;;;2.30;;
30096;SDS011;16915;51.466;3.610;2022-09-09T13:17:54;8.50;;;3.13;;
30096;SDS011;16915;51.466;3.610;2022-09-09T13:20:22;8.73;;;2.28;;
30096;SDS011;16915;51.466;3.610;2022-09-09T13:22:50;13.18;;;2.67;;
30096;SDS011;16915;51.466;3.610;2022-09-09T13:25:22;6.13;;;2.60;;
30096;SDS011;16915;51.466;3.610;2022-09-09T13:28:04;6.03;;;3.13;;
30096;SDS011;16915;51.466;3.610;2022-09-09T13:30:34;7.75;;;3.40;;
30096;SDS011;16915;51.466;3.610;2022-09-09T13:35:54;7.97;;;4.75;;
30096;SDS011;16915;51.466;3.610;2022-09-09T13:38:21;9.77;;;3.88;;
30096;SDS011;16915;51.466;3.610;2022-09-09T13:40:51;7.10;;;3.40;;
30096;SDS011;16915;51.466;3.610;2022-09-09T13:43:22;6.75;;;2.63;;
30096;SDS011;16915;51.466;3.610;2022-09-09T13:46:01;4.90;;;3.03;;
30096;SDS011;16915;51.466;3.610;2022-09-09T13:51:38;4.97;;;1.90;;
30096;SDS011;16915;51.466;3.610;2022-09-09T13:54:12;5.00;;;2.05;;
30096;SDS011;16915;51.466;3.610;2022-09-09T13:56:39;6.15;;;1.90;;
30096;SDS011;16915;51.466;3.610;2022-09-09T13:59:09;7.40;;;2.25;;
30096;SDS011;16915;51.466;3.610;2022-09-09T14:01:37;7.68;;;1.88;;
30096;SDS011;16915;51.466;3.610;2022-09-09T14:04:03;7.30;;;2.05;;
30096;SDS011;16915;51.466;3.610;2022-09-09T14:06:31;5.28;;;2.17;;
30096;SDS011;16915;51.466;3.610;2022-09-09T14:08:57;6.07;;;2.25;;
30096;SDS011;16915;51.466;3.610;2022-09-09T14:11:23;7.40;;;1.98;;
30096;SDS011;16915;51.466;3.610;2022-09-09T14:13:49;14.18;;;2.55;;
30096;SDS011;16915;51.466;3.610;2022-09-09T14:16:16;10.40;;;2.20;;
30096;SDS011;16915;51.466;3.610;2022-09-09T14:18:43;7.78;;;2.15;;
30096;SDS011;16915;51.466;3.610;2022-09-09T14:21:09;9.23;;;2.65;;
30096;SDS011;16915;51.466;3.610;2022-09-09T14:23:35;10.10;;;2.10;;
30096;SDS011;16915;51.466;3.610;2022-09-09T14:26:01;10.27;;;2.20;;
30096;SDS011;16915;51.466;3.610;2022-09-09T14:28:27;5.28;;;2.17;;
30096;SDS011;16915;51.466;3.610;2022-09-09T14:30:53;5.57;;;1.58;;
30096;SDS011;16915;51.466;3.610;2022-09-09T14:33:19;5.78;;;1.55;;
30096;SDS011;16915;51.466;3.610;2022-09-09T14:35:45;7.50;;;2.03;;
30096;SDS011;16915;51.466;3.610;2022-09-09T14:38:10;6.20;;;1.80;;
30096;SDS011;16915;51.466;3.610;2022-09-09T14:40:36;5.07;;;1.48;;
30096;SDS011;16915;51.466;3.610;2022-09-09T14:43:03;2.45;;;1.10;;
30096;SDS011;16915;51.466;3.610;2022-09-09T14:45:30;3.33;;;0.90;;
30096;SDS011;16915;51.466;3.610;2022-09-09T14:47:56;2.72;;;0.70;;
30096;SDS011;16915;51.466;3.610;2022-09-09T14:50:22;1.80;;;0.70;;
30096;SDS011;16915;51.466;3.610;2022-09-09T14:52:48;2.10;;;0.82;;
30096;SDS011;16915;51.466;3.610;2022-09-09T14:55:15;2.90;;;0.80;;
30096;SDS011;16915;51.466;3.610;2022-09-09T14:57:41;4.00;;;0.77;;
30096;SDS011;16915;51.466;3.610;2022-09-09T15:00:08;4.28;;;1.15;;
30096;SDS011;16915;51.466;3.610;2022-09-09T15:02:36;3.28;;;1.33;;
30096;SDS011;16915;51.466;3.610;2022-09-09T15:05:03;3.03;;;1.08;;
30096;SDS011;16915;51.466;3.610;2022-09-09T15:07:29;6.15;;;0.98;;
30096;SDS011;16915;51.466;3.610;2022-09-09T15:09:57;6.43;;;1.35;;
30096;SDS011;16915;51.466;3.610;2022-09-09T15:12:23;2.15;;;0.93;;
30096;SDS011;16915;51.466;3.610;2022-09-09T15:14:49;5.00;;;1.02;;
30096;SDS011;16915;51.466;3.610;2022-09-09T15:17:15;2.42;;;0.50;;
30096;SDS011;16915;51.466;3.610;2022-09-09T15:19:41;1.77;;;0.70;;
30096;SDS011;16915;51.466;3.610;2022-09-09T15:22:07;6.82;;;0.90;;
30096;SDS011;16915;51.466;3.610;2022-09-09T15:24:33;1.65;;;0.77;;
30096;SDS011;16915;51.466;3.610;2022-09-09T15:27:00;2.63;;;0.60;;
30096;SDS011;16915;51.466;3.610;2022-09-09T15:29:25;2.83;;;1.20;;
30096;SDS011;16915;51.466;3.610;2022-09-09T15:31:51;3.25;;;0.93;;
30096;SDS011;16915;51.466;3.610;2022-09-09T15:34:18;7.80;;;1.02;;
30096;SDS011;16915;51.466;3.610;2022-09-09T15:36:44;1.58;;;0.88;;
30096;SDS011;16915;51.466;3.610;2022-09-09T15:39:14;2.42;;;1.10;;
30096;SDS011;16915;51.466;3.610;2022-09-09T15:41:42;5.45;;;1.40;;
30096;SDS011;16915;51.466;3.610;2022-09-09T15:44:11;3.30;;;1.55;;
30096;SDS011;16915;51.466;3.610;2022-09-09T15:46:38;5.43;;;1.35;;
30096;SDS011;16915;51.466;3.610;2022-09-09T15:49:07;3.08;;;1.13;;
30096;SDS011;16915;51.466;3.610;2022-09-09T15:51:38;3.65;;;1.00;;
30096;SDS011;16915;51.466;3.610;2022-09-09T15:54:06;3.13;;;0.90;;
30096;SDS011;16915;51.466;3.610;2022-09-09T15:56:32;5.65;;;1.17;;
30096;SDS011;16915;51.466;3.610;2022-09-09T15:58:58;5.88;;;1.70;;
30096;SDS011;16915;51.466;3.610;2022-09-09T16:01:24;3.80;;;2.72;;
30096;SDS011;16915;51.466;3.610;2022-09-09T16:03:51;7.47;;;2.78;;
30096;SDS011;16915;51.466;3.610;2022-09-09T16:06:18;1.67;;;1.45;;
30096;SDS011;16915;51.466;3.610;2022-09-09T16:08:46;5.90;;;1.45;;
30096;SDS011;16915;51.466;3.610;2022-09-09T16:11:21;4.40;;;1.60;;
30096;SDS011;16915;51.466;3.610;2022-09-09T16:13:49;11.63;;;6.60;;
30096;SDS011;16915;51.466;3.610;2022-09-09T16:16:18;6.40;;;3.70;;
30096;SDS011;16915;51.466;3.610;2022-09-09T16:18:50;4.88;;;1.42;;
30096;SDS011;16915;51.466;3.610;2022-09-09T16:21:20;5.80;;;1.38;;
30096;SDS011;16915;51.466;3.610;2022-09-09T16:23:57;5.28;;;1.20;;
30096;SDS011;16915;51.466;3.610;2022-09-09T16:26:27;5.63;;;1.05;;
30096;SDS011;16915;51.466;3.610;2022-09-09T16:28:55;3.97;;;0.88;;
30096;SDS011;16915;51.466;3.610;2022-09-09T16:31:22;1.50;;;0.85;;
30096;SDS011;16915;51.466;3.610;2022-09-09T16:33:48;2.03;;;0.77;;
30096;SDS011;16915;51.466;3.610;2022-09-09T16:36:20;3.88;;;1.10;;
30096;SDS011;16915;51.466;3.610;2022-09-09T16:38:47;4.43;;;1.67;;
30096;SDS011;16915;51.466;3.610;2022-09-09T16:41:14;3.17;;;1.08;;
30096;SDS011;16915;51.466;3.610;2022-09-09T16:43:40;1.80;;;1.00;;
30096;SDS011;16915;51.466;3.610;2022-09-09T16:46:16;1.42;;;0.88;;
30096;SDS011;16915;51.466;3.610;2022-09-09T16:49:02;3.67;;;1.08;;
30096;SDS011;16915;51.466;3.610;2022-09-09T16:51:30;5.65;;;1.00;;
30096;SDS011;16915;51.466;3.610;2022-09-09T16:53:59;6.00;;;1.88;;
30096;SDS011;16915;51.466;3.610;2022-09-09T16:56:33;6.60;;;1.63;;
30096;SDS011;16915;51.466;3.610;2022-09-09T16:59:07;6.00;;;1.00;;
30096;SDS011;16915;51.466;3.610;2022-09-09T17:01:39;4.93;;;1.30;;
30096;SDS011;16915;51.466;3.610;2022-09-09T17:04:08;2.83;;;1.10;;
30096;SDS011;16915;51.466;3.610;2022-09-09T17:06:36;3.22;;;1.20;;
30096;SDS011;16915;51.466;3.610;2022-09-09T17:09:03;3.45;;;1.20;;
30096;SDS011;16915;51.466;3.610;2022-09-09T17:11:31;5.30;;;1.27;;
30096;SDS011;16915;51.466;3.610;2022-09-09T17:13:58;5.60;;;1.25;;
30096;SDS011;16915;51.466;3.610;2022-09-09T17:16:25;9.45;;;1.30;;
30096;SDS011;16915;51.466;3.610;2022-09-09T17:18:53;5.43;;;1.02;;
30096;SDS011;16915;51.466;3.610;2022-09-09T17:21:20;5.60;;;1.08;;
30096;SDS011;16915;51.466;3.610;2022-09-09T17:23:48;2.97;;;0.88;;
30096;SDS011;16915;51.466;3.610;2022-09-09T17:26:15;2.55;;;0.73;;
30096;SDS011;16915;51.466;3.610;2022-09-09T17:28:43;2.85;;;0.98;;
30096;SDS011;16915;51.466;3.610;2022-09-09T17:31:15;5.38;;;1.20;;
30096;SDS011;16915;51.466;3.610;2022-09-09T17:33:44;3.92;;;1.50;;
30096;SDS011;16915;51.466;3.610;2022-09-09T17:36:31;5.18;;;1.40;;
30096;SDS011;16915;51.466;3.610;2022-09-09T17:38:58;6.70;;;1.80;;
30096;SDS011;16915;51.466;3.610;2022-09-09T17:41:26;3.47;;;1.50;;
30096;SDS011;16915;51.466;3.610;2022-09-09T17:43:53;7.97;;;1.77;;
30096;SDS011;16915;51.466;3.610;2022-09-09T17:46:20;11.25;;;3.30;;
30096;SDS011;16915;51.466;3.610;2022-09-09T17:48:48;7.88;;;2.15;;
30096;SDS011;16915;51.466;3.610;2022-09-09T17:51:17;7.75;;;1.60;;
30096;SDS011;16915;51.466;3.610;2022-09-09T17:53:46;5.88;;;1.70;;
30096;SDS011;16915;51.466;3.610;2022-09-09T17:56:14;12.30;;;1.58;;
30096;SDS011;16915;51.466;3.610;2022-09-09T18:01:11;9.00;;;1.85;;
30096;SDS011;16915;51.466;3.610;2022-09-09T18:03:40;15.13;;;2.83;;
30096;SDS011;16915;51.466;3.610;2022-09-09T18:06:11;7.68;;;1.90;;
30096;SDS011;16915;51.466;3.610;2022-09-09T18:08:40;12.95;;;2.10;;
30096;SDS011;16915;51.466;3.610;2022-09-09T18:11:07;14.88;;;2.60;;
30096;SDS011;16915;51.466;3.610;2022-09-09T18:13:33;11.40;;;1.80;;
30096;SDS011;16915;51.466;3.610;2022-09-09T18:15:59;7.97;;;1.95;;
30096;SDS011;16915;51.466;3.610;2022-09-09T18:18:26;6.95;;;1.85;;
30096;SDS011;16915;51.466;3.610;2022-09-09T18:21:26;5.72;;;2.00;;
30096;SDS011;16915;51.466;3.610;2022-09-09T18:23:45;6.10;;;1.50;;
30096;SDS011;16915;51.466;3.610;2022-09-09T18:26:18;6.97;;;1.30;;
30096;SDS011;16915;51.466;3.610;2022-09-09T18:28:47;8.27;;;2.58;;
30096;SDS011;16915;51.466;3.610;2022-09-09T18:31:15;7.95;;;2.88;;
30096;SDS011;16915;51.466;3.610;2022-09-09T18:33:45;8.63;;;1.67;;
30096;SDS011;16915;51.466;3.610;2022-09-09T18:36:16;7.20;;;1.75;;
30096;SDS011;16915;51.466;3.610;2022-09-09T18:38:47;6.72;;;1.42;;
30096;SDS011;16915;51.466;3.610;2022-09-09T18:41:13;5.75;;;1.45;;
30096;SDS011;16915;51.466;3.610;2022-09-09T18:43:52;6.43;;;1.55;;
30096;SDS011;16915;51.466;3.610;2022-09-09T18:46:20;9.43;;;1.50;;
30096;SDS011;16915;51.466;3.610;2022-09-09T18:48:46;6.93;;;1.55;;
30096;SDS011;16915;51.466;3.610;2022-09-09T18:51:15;9.38;;;1.77;;
30096;SDS011;16915;51.466;3.610;2022-09-09T18:54:00;7.43;;;2.00;;
30096;SDS011;16915;51.466;3.610;2022-09-09T18:56:30;8.50;;;2.40;;
30096;SDS011;16915;51.466;3.610;2022-09-09T18:59:26;2.83;;;1.48;;
30096;SDS011;16915;51.466;3.610;2022-09-09T19:01:54;11.98;;;1.92;;
30096;SDS011;16915;51.466;3.610;2022-09-09T19:04:23;6.95;;;2.08;;
30096;SDS011;16915;51.466;3.610;2022-09-09T19:06:51;12.68;;;1.90;;
30096;SDS011;16915;51.466;3.610;2022-09-09T19:09:22;9.00;;;2.40;;
30096;SDS011;16915;51.466;3.610;2022-09-09T19:11:49;4.60;;;1.65;;
30096;SDS011;16915;51.466;3.610;2022-09-09T19:14:16;7.43;;;2.00;;
30096;SDS011;16915;51.466;3.610;2022-09-09T19:16:43;5.80;;;1.85;;
30096;SDS011;16915;51.466;3.610;2022-09-09T19:19:28;2.65;;;1.55;;
30096;SDS011;16915;51.466;3.610;2022-09-09T19:21:56;6.07;;;1.80;;
30096;SDS011;16915;51.466;3.610;2022-09-09T19:24:23;5.53;;;2.03;;
30096;SDS011;16915;51.466;3.610;2022-09-09T19:26:54;10.10;;;2.10;;
30096;SDS011;16915;51.466;3.610;2022-09-09T19:29:25;6.85;;;1.65;;
30096;SDS011;16915;51.466;3.610;2022-09-09T19:31:53;6.18;;;2.00;;
30096;SDS011;16915;51.466;3.610;2022-09-09T19:34:19;8.10;;;1.60;;
30096;SDS011;16915;51.466;3.610;2022-09-09T19:36:46;8.13;;;1.38;;
30096;SDS011;16915;51.466;3.610;2022-09-09T19:39:13;6.47;;;1.63;;
30096;SDS011;16915;51.466;3.610;2022-09-09T19:41:39;5.90;;;1.63;;
30096;SDS011;16915;51.466;3.610;2022-09-09T19:44:06;9.00;;;1.60;;
30096;SDS011;16915;51.466;3.610;2022-09-09T19:49:03;13.65;;;2.05;;
30096;SDS011;16915;51.466;3.610;2022-09-09T19:51:30;9.23;;;2.13;;
30096;SDS011;16915;51.466;3.610;2022-09-09T19:54:00;8.73;;;2.35;;
30096;SDS011;16915;51.466;3.610;2022-09-09T19:56:29;6.95;;;1.70;;
30096;SDS011;16915;51.466;3.610;2022-09-09T19:58:57;6.50;;;1.60;;
30096;SDS011;16915;51.466;3.610;2022-09-09T20:01:24;6.97;;;2.03;;
30096;SDS011;16915;51.466;3.610;2022-09-09T20:03:52;4.13;;;1.45;;
30096;SDS011;16915;51.466;3.610;2022-09-09T20:06:20;9.38;;;1.75;;
30096;SDS011;16915;51.466;3.610;2022-09-09T20:08:48;3.55;;;1.40;;